createdAt,value
2023-01-30T00:02:01.158Z,97900.13
2023-01-30T00:04:31.521Z,97895.44
2023-01-30T00:07:01.959Z,97876.84
2023-01-30T00:09:32.244Z,97894.69
2023-01-30T00:12:02.624Z,97896.63
2023-01-30T00:14:35.709Z,97893.50
2023-01-30T00:17:05.967Z,97902.44
2023-01-30T00:19:36.377Z,97893.53
2023-01-30T00:22:06.654Z,97907.09
2023-01-30T00:24:37.284Z,97894.69
2023-01-30T00:27:07.814Z,97890.03
2023-01-30T00:29:43.239Z,97885.38
2023-01-30T00:32:14.589Z,97871.03
2023-01-30T00:34:44.898Z,97865.56
2023-01-30T00:37:15.232Z,97865.56
2023-01-30T00:39:45.523Z,97853.53
2023-01-30T00:42:28.304Z,97851.97
2023-01-30T00:45:19.562Z,97861.31
2023-01-30T00:47:51.653Z,97864.41
2023-01-30T00:50:22.460Z,97862.09
2023-01-30T00:52:52.803Z,97848.91
2023-01-30T00:55:23.227Z,97857.41
2023-01-30T00:57:53.608Z,97850.78
2023-01-30T01:00:26.588Z,97841.88
2023-01-30T01:02:56.950Z,97844.22
2023-01-30T01:05:27.357Z,97848.06
2023-01-30T01:07:57.719Z,97844.97
2023-01-30T01:10:28.102Z,97844.97
2023-01-30T01:12:58.389Z,97839.53
2023-01-30T01:15:31.639Z,97829.44
2023-01-30T01:18:03.495Z,97820.56
2023-01-30T01:20:34.321Z,97820.94
2023-01-30T01:23:06.451Z,97812.41
2023-01-30T01:25:36.741Z,97788.38
2023-01-30T01:28:07.803Z,97794.56
2023-01-30T01:30:41.349Z,97784.47
2023-01-30T01:33:14.145Z,97770.50
2023-01-30T01:35:45.048Z,97764.31
2023-01-30T01:38:15.408Z,97763.13
2023-01-30T01:41:01.906Z,97765.84
2023-01-30T01:43:35.912Z,97741.81
2023-01-30T01:46:14.845Z,97748.78
2023-01-30T01:48:50.244Z,97739.44
2023-01-30T01:51:25.619Z,97723.53
2023-01-30T01:54:00.988Z,97723.91
2023-01-30T01:56:32.716Z,97700.66
2023-01-30T01:59:09.156Z,97682.78
2023-01-30T02:01:42.232Z,97686.63
2023-01-30T02:04:35.147Z,97670.25
2023-01-30T02:07:05.712Z,97678.84
2023-01-30T02:09:36.247Z,97681.94
2023-01-30T02:12:08.631Z,97674.56
2023-01-30T02:14:40.709Z,97666.41
2023-01-30T02:17:13.707Z,97663.66
2023-01-30T02:19:54.699Z,97644.56
2023-01-30T02:22:59.567Z,97657.00
2023-01-30T02:25:56.644Z,97641.41
2023-01-30T02:29:34.102Z,97642.88
2023-01-30T02:32:14.105Z,97640.50
2023-01-30T02:34:53.599Z,97637.41
2023-01-30T02:37:39.796Z,97633.84
2023-01-30T02:40:32.843Z,97643.47
2023-01-30T02:43:11.665Z,97665.16
2023-01-30T02:45:53.653Z,97653.91
2023-01-30T02:48:33.655Z,97646.94
2023-01-30T02:51:08.581Z,97660.13
2023-01-30T02:53:40.743Z,97651.13
2023-01-30T02:56:11.516Z,97648.81
2023-01-30T02:58:46.005Z,97627.78
2023-01-30T03:02:00.400Z,97633.16
2023-01-30T03:04:55.651Z,97627.31
2023-01-30T03:07:40.371Z,97613.22
2023-01-30T03:10:20.161Z,97613.19
2023-01-30T03:13:06.055Z,97591.38
2023-01-30T03:15:43.952Z,97596.81
2023-01-30T03:18:14.522Z,97589.03
2023-01-30T03:20:47.826Z,97594.88
2023-01-30T03:23:18.223Z,97582.41
2023-01-30T03:25:50.922Z,97580.88
2023-01-30T03:28:24.398Z,97568.44
2023-01-30T03:30:54.897Z,97545.84
2023-01-30T03:33:25.304Z,97550.50
2023-01-30T03:35:58.743Z,97556.66
2023-01-30T03:38:29.169Z,97547.63
2023-01-30T03:40:59.577Z,97540.63
2023-01-30T03:43:30.249Z,97544.19
2023-01-30T03:46:00.679Z,97534.06
2023-01-30T03:48:32.099Z,97535.19
2023-01-30T03:51:05.055Z,97534.41
2023-01-30T03:53:35.378Z,97548.84
2023-01-30T03:56:05.833Z,97534.09
2023-01-30T03:58:38.459Z,97524.81
2023-01-30T04:01:20.249Z,97504.56
2023-01-30T04:03:51.207Z,97513.81
2023-01-30T04:06:24.388Z,97511.09
2023-01-30T04:08:56.305Z,97488.91
2023-01-30T04:11:50.468Z,97482.16
2023-01-30T04:14:21.872Z,97478.66
2023-01-30T04:17:18.251Z,97468.91
2023-01-30T04:20:11.095Z,97464.59
2023-01-30T04:22:48.118Z,97464.88
2023-01-30T04:25:20.532Z,97481.22
2023-01-30T04:27:51.156Z,97471.47
2023-01-30T04:30:25.223Z,97473.44
2023-01-30T04:33:02.409Z,97463.63
2023-01-30T04:35:32.726Z,97474.44
2023-01-30T04:38:05.822Z,97454.88
2023-01-30T04:40:36.181Z,97453.31
2023-01-30T04:43:06.589Z,97450.97
2023-01-30T04:45:39.338Z,97444.34
2023-01-30T04:48:09.745Z,97446.28
2023-01-30T04:50:40.268Z,97436.47
2023-01-30T04:53:13.780Z,97423.97
2023-01-30T04:55:44.149Z,97434.44
2023-01-30T04:58:14.580Z,97420.75
2023-01-30T05:00:44.987Z,97420.75
2023-01-30T05:03:15.407Z,97444.53
2023-01-30T05:05:46.339Z,97422.97
2023-01-30T05:08:19.531Z,97419.47
2023-01-30T05:10:49.767Z,97408.56
2023-01-30T05:13:20.046Z,97403.81
2023-01-30T05:15:50.450Z,97398.53
2023-01-30T05:18:20.752Z,97404.31
2023-01-30T05:20:51.080Z,97379.78
2023-01-30T05:23:23.984Z,97403.91
2023-01-30T05:25:54.256Z,97376.72
2023-01-30T05:28:24.787Z,97360.72
2023-01-30T05:30:55.242Z,97357.88
2023-01-30T05:33:25.547Z,97346.59
2023-01-30T05:35:55.820Z,97314.69
2023-01-30T05:38:29.921Z,97334.19
2023-01-30T05:41:03.977Z,97347.81
2023-01-30T05:43:35.443Z,97351.09
2023-01-30T05:46:08.839Z,97345.66
2023-01-30T05:48:39.214Z,97346.75
2023-01-30T05:51:10.288Z,97306.28
2023-01-30T05:53:43.314Z,97341.25
2023-01-30T05:56:13.594Z,97325.59
2023-01-30T05:58:43.868Z,97305.47
2023-01-30T06:01:16.162Z,97323.78
2023-01-30T06:03:46.498Z,97315.50
2023-01-30T06:06:16.937Z,97282.47
2023-01-30T06:08:50.175Z,97294.94
2023-01-30T06:11:20.832Z,97289.81
2023-01-30T06:13:51.201Z,97284.31
2023-01-30T06:16:22.588Z,97290.53
2023-01-30T06:18:52.901Z,97293.31
2023-01-30T06:21:23.326Z,97275.41
2023-01-30T06:23:56.205Z,97287.84
2023-01-30T06:26:26.563Z,97271.09
2023-01-30T06:28:56.863Z,97279.53
2023-01-30T06:31:27.262Z,97286.03
2023-01-30T06:33:57.555Z,97268.69
2023-01-30T06:36:28.056Z,97283.66
2023-01-30T06:39:01.058Z,97286.31
2023-01-30T06:41:31.366Z,97290.16
2023-01-30T06:44:01.653Z,97279.25
2023-01-30T06:46:31.931Z,97280.00
2023-01-30T06:49:02.190Z,97278.75
2023-01-30T06:51:32.637Z,97290.00
2023-01-30T06:54:05.516Z,97277.91
2023-01-30T06:56:36.209Z,97291.47
2023-01-30T06:59:06.643Z,97285.16
2023-01-30T07:01:37.538Z,97272.66
2023-01-30T07:04:08.045Z,97286.63
2023-01-30T07:06:40.252Z,97278.38
2023-01-30T07:09:13.545Z,97323.06
2023-01-30T07:11:43.885Z,97244.28
2023-01-30T07:14:14.517Z,97266.88
2023-01-30T07:16:45.055Z,97271.75
2023-01-30T07:19:15.706Z,97258.19
2023-01-30T07:21:46.119Z,97273.28
2023-01-30T07:24:19.532Z,97254.88
2023-01-30T07:26:51.486Z,97254.28
2023-01-30T07:29:22.023Z,97267.91
2023-01-30T07:31:52.368Z,97271.00
2023-01-30T07:34:22.812Z,97266.31
2023-01-30T07:36:53.075Z,97267.75
2023-01-30T07:39:26.137Z,97248.38
2023-01-30T07:41:57.033Z,97265.88
2023-01-30T07:44:28.596Z,97260.00
2023-01-30T07:46:58.884Z,97254.38
2023-01-30T07:49:29.731Z,97263.41
2023-01-30T07:52:00.127Z,97262.56
2023-01-30T07:54:33.019Z,97259.66
2023-01-30T07:57:03.457Z,97260.25
2023-01-30T07:59:33.713Z,97252.75
2023-01-30T08:02:04.031Z,97266.41
2023-01-30T08:04:34.311Z,97258.88
2023-01-30T08:07:04.904Z,97267.59
2023-01-30T08:09:37.885Z,97267.84
2023-01-30T08:12:08.676Z,97273.16
2023-01-30T08:14:39.021Z,97259.81
2023-01-30T08:17:09.434Z,97260.69
2023-01-30T08:19:39.769Z,97266.97
2023-01-30T08:22:10.161Z,97248.22
2023-01-30T08:24:43.345Z,97278.09
2023-01-30T08:27:13.700Z,97272.97
2023-01-30T08:29:44.002Z,97268.00
2023-01-30T08:32:15.839Z,97270.47
2023-01-30T08:34:46.205Z,97254.38
2023-01-30T08:37:16.581Z,97263.16
2023-01-30T08:39:49.590Z,97264.84
2023-01-30T08:42:19.909Z,97287.63
2023-01-30T08:44:50.310Z,97275.34
2023-01-30T08:47:20.698Z,97263.94
2023-01-30T08:49:51.511Z,97266.91
2023-01-30T08:52:21.968Z,97249.84
2023-01-30T08:54:54.922Z,97253.25
2023-01-30T08:57:25.464Z,97235.16
2023-01-30T08:59:55.773Z,97242.31
2023-01-30T09:02:26.032Z,97228.72
2023-01-30T09:04:56.335Z,97235.22
2023-01-30T09:07:28.886Z,97237.06
2023-01-30T09:10:01.962Z,97246.44
2023-01-30T09:12:32.787Z,97244.81
2023-01-30T09:15:03.112Z,97258.03
2023-01-30T09:17:33.378Z,97253.38
2023-01-30T09:20:03.750Z,97241.06
2023-01-30T09:22:34.041Z,97239.56
2023-01-30T09:25:08.290Z,97247.00
2023-01-30T09:27:38.613Z,97262.00
2023-01-30T09:30:11.412Z,97241.53
2023-01-30T09:32:41.752Z,97253.53
2023-01-30T09:35:12.183Z,97238.66
2023-01-30T09:37:49.997Z,97244.88
2023-01-30T09:40:27.226Z,97237.03
2023-01-30T09:43:26.438Z,97237.28
2023-01-30T09:46:20.008Z,97229.06
2023-01-30T09:49:02.572Z,97237.16
2023-01-30T09:51:50.526Z,97262.22
2023-01-30T09:54:25.759Z,97248.50
2023-01-30T09:57:21.965Z,97246.97
2023-01-30T10:00:01.629Z,97226.41
2023-01-30T10:02:51.124Z,97221.81
2023-01-30T10:05:21.961Z,97225.75
2023-01-30T10:08:09.782Z,97229.13
2023-01-30T10:11:00.798Z,97224.31
2023-01-30T10:14:12.968Z,97214.88
2023-01-30T10:16:54.548Z,97229.34
2023-01-30T10:19:53.183Z,97239.22
2023-01-30T10:22:42.030Z,97223.22
2023-01-30T10:25:28.353Z,97233.06
2023-01-30T10:28:04.687Z,97234.97
2023-01-30T10:30:37.989Z,97232.25
2023-01-30T10:33:15.452Z,97231.41
2023-01-30T10:35:47.372Z,97225.88
2023-01-30T10:38:23.739Z,97227.19
2023-01-30T10:41:04.397Z,97210.03
2023-01-30T10:43:41.204Z,97214.03
2023-01-30T10:46:29.975Z,97193.03
2023-01-30T10:49:04.501Z,97213.53
2023-01-30T10:51:50.096Z,97207.13
2023-01-30T10:54:28.446Z,97209.44
2023-01-30T10:57:10.295Z,97214.72
2023-01-30T10:59:56.302Z,97221.09
2023-01-30T11:02:43.458Z,97210.91
2023-01-30T11:05:20.146Z,97216.44
2023-01-30T11:07:51.648Z,97225.63
2023-01-30T11:10:23.331Z,97216.13
2023-01-30T11:12:55.987Z,97218.16
2023-01-30T11:15:27.006Z,97218.34
2023-01-30T11:18:50.916Z,97223.44
2023-01-30T11:21:06.991Z,97215.66
2023-01-30T11:23:39.603Z,97224.19
2023-01-30T11:26:11.832Z,97206.16
2023-01-30T11:28:48.688Z,97210.44
2023-01-30T11:31:39.995Z,97202.69
2023-01-30T11:34:21.180Z,97198.88
2023-01-30T11:36:52.696Z,97194.28
2023-01-30T11:39:31.878Z,97204.16
2023-01-30T11:42:05.950Z,97201.00
2023-01-30T11:44:39.422Z,97205.78
2023-01-30T11:47:15.621Z,97204.16
2023-01-30T11:50:07.878Z,97202.63
2023-01-30T11:52:45.220Z,97203.97
2023-01-30T11:55:19.681Z,97208.84
2023-01-30T11:57:55.717Z,97202.47
2023-01-30T12:00:30.527Z,97199.94
2023-01-30T12:03:08.667Z,97199.16
2023-01-30T12:05:45.114Z,97191.63
2023-01-30T12:08:41.073Z,97186.00
2023-01-30T12:11:32.033Z,97189.34
2023-01-30T12:14:25.624Z,97184.03
2023-01-30T12:17:14.206Z,97192.13
2023-01-30T12:19:58.973Z,97176.06
2023-01-30T12:22:41.035Z,97183.94
2023-01-30T12:25:18.957Z,97179.13
2023-01-30T12:33:10.076Z,97164.78
2023-01-30T12:35:59.241Z,97152.97
2023-01-30T12:38:59.120Z,97153.75
2023-01-30T12:41:47.333Z,97152.75
2023-01-30T12:44:40.301Z,97140.28
2023-01-30T12:47:34.679Z,97163.03
2023-01-30T12:50:23.951Z,97142.13
2023-01-30T12:53:27.764Z,97142.13
2023-01-30T12:56:22.779Z,97141.63
2023-01-30T12:59:00.203Z,97143.03
2023-01-30T13:01:38.319Z,97146.63
2023-01-30T13:04:19.278Z,97143.38
2023-01-30T13:07:09.603Z,97140.06
2023-01-30T13:09:57.602Z,97141.16
2023-01-30T13:12:41.321Z,97139.31
2023-01-30T13:15:25.051Z,97147.09
2023-01-30T13:18:07.691Z,97159.53
2023-01-30T13:21:00.357Z,97151.75
2023-01-30T13:23:44.192Z,97147.06
2023-01-30T13:26:19.734Z,97148.16
2023-01-30T13:28:59.140Z,97147.81
2023-01-30T13:31:35.999Z,97148.72
2023-01-30T13:34:10.515Z,97145.41
2023-01-30T13:36:48.951Z,97151.22
2023-01-30T13:39:27.545Z,97148.94
2023-01-30T13:42:00.912Z,97141.81
2023-01-30T13:44:39.414Z,97146.53
2023-01-30T13:47:28.163Z,97141.06
2023-01-30T13:50:18.564Z,97163.59
2023-01-30T13:52:56.167Z,97149.91
2023-01-30T13:55:34.830Z,97151.56
2023-01-30T13:58:17.799Z,97158.53
2023-01-30T14:00:59.073Z,97154.81
2023-01-30T14:03:33.349Z,97148.50
2023-01-30T14:06:41.495Z,97155.81
2023-01-30T14:09:28.425Z,97153.41
2023-01-30T14:12:06.938Z,97162.06
2023-01-30T14:14:40.824Z,97159.22
2023-01-30T14:17:16.378Z,97155.59
2023-01-30T14:19:58.484Z,97164.91
2023-01-30T14:22:36.980Z,97159.53
2023-01-30T14:25:52.413Z,97161.84
2023-01-30T14:28:53.696Z,97158.75
2023-01-30T14:31:54.457Z,97156.78
2023-01-30T14:35:22.903Z,97166.09
2023-01-30T14:38:10.003Z,97150.00
2023-01-30T14:40:51.672Z,97150.31
2023-01-30T14:43:55.200Z,97152.16
2023-01-30T14:46:55.760Z,97146.91
2023-01-30T14:49:46.647Z,97158.41
2023-01-30T14:52:39.458Z,97158.88
2023-01-30T14:55:22.363Z,97167.50
2023-01-30T14:57:59.091Z,97167.31
2023-01-30T15:00:34.638Z,97166.09
2023-01-30T15:03:11.559Z,97166.31
2023-01-30T15:05:47.329Z,97166.31
2023-01-30T15:08:25.213Z,97161.72
2023-01-30T15:11:15.595Z,97172.34
2023-01-30T15:13:58.016Z,97174.41
2023-01-30T15:17:03.061Z,97162.16
2023-01-30T15:20:04.033Z,97164.13
2023-01-30T15:22:47.626Z,97168.06
2023-01-30T15:25:36.596Z,97180.31
2023-01-30T15:28:23.712Z,97181.28
2023-01-30T15:31:12.655Z,97196.09
2023-01-30T15:33:51.411Z,97186.00
2023-01-30T15:36:30.289Z,97200.66
2023-01-30T15:39:06.495Z,97208.31
2023-01-30T15:41:43.283Z,97200.44
2023-01-30T15:44:45.522Z,97206.56
2023-01-30T15:47:53.829Z,97212.03
2023-01-30T15:50:24.599Z,97214.13
2023-01-30T15:52:56.690Z,97232.72
2023-01-30T15:55:30.850Z,97230.41
2023-01-30T15:58:08.309Z,97227.16
2023-01-30T16:00:44.204Z,97231.16
2023-01-30T16:03:20.255Z,97244.84
2023-01-30T16:05:52.263Z,97247.94
2023-01-30T16:08:26.016Z,97243.66
2023-01-30T16:10:56.736Z,97227.84
2023-01-30T16:13:33.407Z,97259.66
2023-01-30T16:16:12.774Z,97279.16
2023-01-30T16:18:50.692Z,97283.00
2023-01-30T16:21:24.850Z,97265.00
2023-01-30T16:23:59.409Z,97274.22
2023-01-30T16:26:30.306Z,97266.56
2023-01-30T16:29:09.070Z,97288.91
2023-01-30T16:31:42.630Z,97295.78
2023-01-30T16:34:31.577Z,97281.44
2023-01-30T16:37:08.627Z,97282.34
2023-01-30T16:39:40.848Z,97282.34
2023-01-30T16:42:28.353Z,97274.69
2023-01-30T16:45:39.051Z,97287.06
2023-01-30T16:48:33.590Z,97279.69
2023-01-30T16:51:27.192Z,97279.28
2023-01-30T16:54:04.993Z,97290.88
2023-01-30T16:56:37.243Z,97303.59
2023-01-30T16:59:07.765Z,97309.06
2023-01-30T17:01:43.573Z,97316.19
2023-01-30T17:04:22.836Z,97325.28
2023-01-30T17:07:00.213Z,97324.84
2023-01-30T17:09:47.537Z,97337.22
2023-01-30T17:12:40.363Z,97341.38
2023-01-30T17:15:36.495Z,97344.78
2023-01-30T17:18:13.143Z,97346.75
2023-01-30T17:20:51.370Z,97338.09
2023-01-30T17:23:24.063Z,97362.88
2023-01-30T17:25:54.395Z,97336.34
2023-01-30T17:28:24.693Z,97357.50
2023-01-30T17:30:55.280Z,97354.66
2023-01-30T17:33:28.747Z,97374.72
2023-01-30T17:35:59.260Z,97356.41
2023-01-30T17:38:29.761Z,97369.13
2023-01-30T17:41:02.191Z,97352.69
2023-01-30T17:43:32.519Z,97346.22
2023-01-30T17:46:04.083Z,97358.28
2023-01-30T17:48:37.021Z,97387.97
2023-01-30T17:51:07.968Z,97373.19
2023-01-30T17:53:38.399Z,97370.09
2023-01-30T17:56:17.014Z,97380.75
2023-01-30T17:58:47.317Z,97388.84
2023-01-30T18:01:19.243Z,97402.53
2023-01-30T18:03:52.302Z,97392.25
2023-01-30T18:06:22.740Z,97391.94
2023-01-30T18:08:53.111Z,97408.69
2023-01-30T18:11:23.593Z,97422.84
2023-01-30T18:13:54.096Z,97423.25
2023-01-30T18:16:31.031Z,97436.97
2023-01-30T18:19:06.754Z,97440.34
2023-01-30T18:21:40.035Z,97439.28
2023-01-30T18:24:11.641Z,97445.50
2023-01-30T18:26:42.249Z,97454.81
2023-01-30T18:29:13.209Z,97461.06
2023-01-30T18:31:44.278Z,97443.44
2023-01-30T18:34:17.584Z,97450.44
2023-01-30T18:36:48.279Z,97465.13
2023-01-30T18:39:18.824Z,97476.50
2023-01-30T18:41:49.221Z,97472.22
2023-01-30T18:44:20.063Z,97486.16
2023-01-30T18:46:52.574Z,97475.63
2023-01-30T18:49:25.503Z,97487.34
2023-01-30T18:51:55.883Z,97493.94
2023-01-30T18:54:26.311Z,97484.53
2023-01-30T18:56:57.229Z,97490.31
2023-01-30T18:59:27.945Z,97503.03
2023-01-30T19:01:58.279Z,97497.13
2023-01-30T19:04:31.183Z,97497.34
2023-01-30T19:07:01.644Z,97523.84
2023-01-30T19:09:32.064Z,97531.97
2023-01-30T19:12:14.745Z,97522.56
2023-01-30T19:14:45.099Z,97519.47
2023-01-30T19:17:16.523Z,97540.97
2023-01-30T19:19:49.420Z,97526.50
2023-01-30T19:22:19.779Z,97532.66
2023-01-30T19:24:50.106Z,97540.88
2023-01-30T19:27:21.097Z,97559.38
2023-01-30T19:29:51.499Z,97567.50
2023-01-30T19:32:22.294Z,97556.53
2023-01-30T19:34:55.359Z,97574.06
2023-01-30T19:37:25.707Z,97575.38
2023-01-30T19:39:55.992Z,97571.09
2023-01-30T19:42:26.352Z,97580.50
2023-01-30T19:44:57.093Z,97582.16
2023-01-30T19:47:27.619Z,97592.25
2023-01-30T19:50:00.622Z,97601.34
2023-01-30T19:52:30.983Z,97593.44
2023-01-30T19:55:01.362Z,97592.25
2023-01-30T19:57:31.668Z,97607.13
2023-01-30T20:00:01.993Z,97606.28
2023-01-30T20:02:34.892Z,97621.28
2023-01-30T20:05:09.082Z,97601.00
2023-01-30T20:07:40.005Z,97624.81
2023-01-30T20:10:11.952Z,97618.22
2023-01-30T20:12:42.416Z,97629.94
2023-01-30T20:15:14.161Z,97644.16
2023-01-30T20:17:44.470Z,97648.97
2023-01-30T20:20:18.181Z,97664.78
2023-01-30T20:22:48.707Z,97661.28
2023-01-30T20:25:19.588Z,97648.28
2023-01-30T20:27:49.979Z,97653.50
2023-01-30T20:30:21.570Z,97663.38
2023-01-30T20:32:53.904Z,97670.47
2023-01-30T20:35:26.889Z,97679.09
2023-01-30T20:37:57.176Z,97678.69
2023-01-30T20:40:27.551Z,97664.16
2023-01-30T20:42:57.956Z,97663.38
2023-01-30T20:45:28.317Z,97683.22
2023-01-30T20:47:58.705Z,97671.06
2023-01-30T20:50:31.650Z,97667.03
2023-01-30T20:53:02.037Z,97664.72
2023-01-30T20:55:32.318Z,97675.84
2023-01-30T20:58:02.818Z,97671.97
2023-01-30T21:00:33.147Z,97671.81
2023-01-30T21:03:03.513Z,97684.56
2023-01-30T21:05:37.255Z,97677.19
2023-01-30T21:08:08.181Z,97680.78
2023-01-30T21:10:40.520Z,97688.84
2023-01-30T21:13:10.856Z,97695.03
2023-01-30T21:15:41.155Z,97686.44
2023-01-30T21:18:11.476Z,97689.53
2023-01-30T21:20:51.549Z,97699.97
2023-01-30T21:23:21.871Z,97710.69
2023-01-30T21:25:52.122Z,97700.06
2023-01-30T21:28:22.497Z,97701.19
2023-01-30T21:30:52.926Z,97710.75
2023-01-30T21:33:23.345Z,97712.41
2023-01-30T21:35:56.251Z,97707.44
2023-01-30T21:38:39.170Z,97718.66
2023-01-30T21:41:23.180Z,97725.84
2023-01-30T21:43:53.513Z,97725.84
2023-01-30T21:46:23.907Z,97742.84
2023-01-30T21:48:54.309Z,97747.59
2023-01-30T21:51:27.415Z,97755.28
2023-01-30T21:54:00.182Z,97777.28
2023-01-30T21:56:30.638Z,97770.25
2023-01-30T21:59:02.499Z,97770.34
2023-01-30T22:01:33.355Z,97781.31
2023-01-30T22:04:05.663Z,97781.41
2023-01-30T22:06:39.907Z,97772.84
2023-01-30T22:09:11.161Z,97778.41
2023-01-30T22:11:41.266Z,97784.38
2023-01-30T22:14:13.384Z,97779.25
2023-01-30T22:16:45.004Z,97794.06
2023-01-30T22:19:15.327Z,97789.94
2023-01-30T22:21:48.286Z,97797.63
2023-01-30T22:24:18.686Z,97792.75
2023-01-30T22:26:49.252Z,97814.72
2023-01-30T22:29:22.442Z,97812.00
2023-01-30T22:31:52.792Z,97817.84
2023-01-30T22:34:23.542Z,97836.34
2023-01-30T22:36:56.601Z,97850.56
2023-01-30T22:39:26.891Z,97864.63
2023-01-30T22:41:57.256Z,97854.16
2023-01-30T22:44:27.648Z,97843.28
2023-01-30T22:46:58.239Z,97844.91
2023-01-30T22:49:28.697Z,97849.13
2023-01-30T22:52:01.873Z,97856.47
2023-01-30T22:54:32.371Z,97856.75
2023-01-30T22:57:04.806Z,97855.66
2023-01-30T22:59:35.697Z,97842.44
2023-01-30T23:02:10.326Z,97846.31
2023-01-30T23:04:40.689Z,97859.13
2023-01-30T23:07:16.291Z,97853.66
2023-01-30T23:09:46.828Z,97856.00
2023-01-30T23:12:29.596Z,97860.19
2023-01-30T23:14:59.933Z,97849.97
2023-01-30T23:17:45.808Z,97853.91
2023-01-30T23:20:16.762Z,97846.50
2023-01-30T23:22:54.455Z,97856.28
2023-01-30T23:25:25.129Z,97853.91
2023-01-30T23:27:55.502Z,97852.97
2023-01-30T23:30:25.764Z,97855.66
2023-01-30T23:32:56.125Z,97856.22
2023-01-30T23:35:26.438Z,97858.72
2023-01-30T23:38:11.715Z,97858.78
2023-01-30T23:40:42.019Z,97867.63
2023-01-30T23:43:12.745Z,97865.31
2023-01-30T23:45:43.190Z,97857.81
2023-01-30T23:48:13.788Z,97856.19
2023-01-30T23:50:44.601Z,97856.69
2023-01-30T23:53:17.580Z,97866.25
2023-01-30T23:55:54.677Z,97862.66
2023-01-30T23:58:25.263Z,97852.91
